createdAt,value
2023-02-22T06:03:08.276Z,24.90
2023-02-22T06:56:11.207Z,24.88
2023-02-22T06:57:11.277Z,24.91
2023-02-22T06:58:11.326Z,24.90
2023-02-22T06:59:11.387Z,24.88
2023-02-22T07:00:11.438Z,24.88
2023-02-22T07:01:11.536Z,24.87
2023-02-22T07:02:11.551Z,24.90
2023-02-22T07:03:11.626Z,24.91
2023-02-22T07:04:11.706Z,24.88
2023-02-22T07:05:11.726Z,24.90
2023-02-22T07:06:11.784Z,24.88
2023-02-22T07:09:11.949Z,24.88
2023-02-22T07:10:12.017Z,24.87
2023-02-22T07:11:12.049Z,24.83
2023-02-22T07:12:12.097Z,24.86
2023-02-22T07:13:11.066Z,24.87
2023-02-22T07:14:12.099Z,24.86
2023-02-22T07:15:12.128Z,24.91
2023-02-22T07:16:12.177Z,24.91
2023-02-22T07:17:11.242Z,24.93
2023-02-22T07:18:12.308Z,24.94
2023-02-22T07:19:12.358Z,24.97
2023-02-22T07:20:11.431Z,24.95
2023-02-22T07:21:12.489Z,24.95
2023-02-22T07:22:11.550Z,24.98
2023-02-22T07:23:12.629Z,24.97
2023-02-22T07:24:12.679Z,24.95
2023-02-22T07:25:12.719Z,24.95
2023-02-22T07:26:12.777Z,24.98
2023-02-22T07:27:12.845Z,24.99
2023-02-22T07:28:12.896Z,25.04
2023-02-22T07:29:12.967Z,25.07
2023-02-22T07:30:12.049Z,25.05
2023-02-22T07:31:13.067Z,25.04
2023-02-22T07:32:13.338Z,25.08
2023-02-22T07:33:13.379Z,25.10
2023-02-22T07:34:13.230Z,25.10
2023-02-22T07:35:13.262Z,25.08
2023-02-22T07:37:12.366Z,25.12
2023-02-22T07:38:13.426Z,25.12
2023-02-22T07:39:13.948Z,25.15
2023-02-22T07:40:13.561Z,25.14
2023-02-22T07:41:13.590Z,25.17
2023-02-22T07:42:13.620Z,25.18
2023-02-22T07:43:13.661Z,25.17
2023-02-22T07:44:13.703Z,25.19
2023-02-22T07:46:13.785Z,25.21
2023-02-22T07:47:13.829Z,25.22
2023-02-22T07:49:13.924Z,25.19
2023-02-22T07:50:13.959Z,25.19
2023-02-22T07:51:14.017Z,25.22
2023-02-22T07:53:13.074Z,25.19
2023-02-22T07:55:13.204Z,25.22
2023-02-22T07:56:14.214Z,25.25
2023-02-22T07:57:14.266Z,25.28
2023-02-22T07:58:13.299Z,25.26
2023-02-22T07:59:14.428Z,25.26
2023-02-22T08:00:13.435Z,25.26
2023-02-22T08:02:13.488Z,25.29
2023-02-22T08:31:14.425Z,25.43
2023-02-22T08:34:14.424Z,25.41
2023-02-22T08:36:14.481Z,25.45
2023-02-22T08:40:15.023Z,25.41
2023-02-22T08:48:14.724Z,25.46
2023-02-22T08:54:14.859Z,25.42
2023-02-22T09:02:15.012Z,25.42
2023-02-22T09:04:15.055Z,25.42
2023-02-22T09:11:15.460Z,25.42
2023-02-22T09:13:15.231Z,25.39
2023-02-22T09:15:15.330Z,25.41
2023-02-22T09:18:15.399Z,25.39
2023-02-22T09:20:15.403Z,25.39
2023-02-22T11:24:19.537Z,25.32
2023-02-22T11:25:19.575Z,25.35
2023-02-22T11:26:19.598Z,25.35
2023-02-22T11:34:19.898Z,25.29
2023-02-22T12:59:21.726Z,25.38
2023-02-22T13:03:21.703Z,25.41
2023-02-22T13:04:21.715Z,25.38
2023-02-22T13:07:21.795Z,25.38
2023-02-22T13:08:21.817Z,25.35
2023-02-22T13:09:21.824Z,25.39
2023-02-22T13:11:21.866Z,25.38
2023-02-22T13:12:21.869Z,25.39
2023-02-22T13:13:21.892Z,25.41
2023-02-22T13:14:21.905Z,25.39
2023-02-22T13:15:21.927Z,25.39
2023-02-22T13:16:22.076Z,25.38
2023-02-22T13:17:21.939Z,25.39
2023-02-22T13:19:21.964Z,25.36
2023-02-22T13:20:21.978Z,25.36
2023-02-22T13:21:21.997Z,25.39
2023-02-22T13:22:24.455Z,25.36
2023-02-22T13:23:21.996Z,25.41
2023-02-22T13:24:21.991Z,25.38
2023-02-22T13:25:22.011Z,25.38
2023-02-22T13:26:21.981Z,25.41
2023-02-22T13:27:21.982Z,25.38
2023-02-22T13:28:22.618Z,25.36
2023-02-22T13:32:22.029Z,25.38
2023-02-22T13:33:21.941Z,25.36
2023-02-22T13:35:21.939Z,25.36
2023-02-22T13:36:21.937Z,25.36
2023-02-22T13:38:21.900Z,25.38
2023-02-22T13:39:21.902Z,25.36
2023-02-22T13:41:21.891Z,25.39
2023-02-22T13:42:21.871Z,25.36
2023-02-22T13:45:21.861Z,25.38
2023-02-22T13:46:21.939Z,25.38
2023-02-22T13:47:21.876Z,25.39
2023-02-22T13:48:21.866Z,25.38
2023-02-22T13:49:23.552Z,25.38
2023-02-22T13:50:21.811Z,25.36
2023-02-22T13:52:21.816Z,25.35
2023-02-22T13:53:21.792Z,25.33
2023-02-22T13:55:21.770Z,25.33
2023-02-22T13:56:21.777Z,25.29
2023-02-22T13:57:21.771Z,25.28
2023-02-22T13:59:21.765Z,25.24
2023-02-22T14:00:21.742Z,25.22
2023-02-22T14:01:21.734Z,25.19
2023-02-22T14:02:21.729Z,25.18
2023-02-22T14:04:21.722Z,25.12
2023-02-22T14:05:21.754Z,25.11
2023-02-22T14:06:21.701Z,25.10
2023-02-22T14:29:21.808Z,24.80
2023-02-22T14:30:21.912Z,24.80
2023-02-22T14:31:34.961Z,24.80
2023-02-22T14:32:22.002Z,24.78
2023-02-22T14:33:21.903Z,24.80
2023-02-22T14:34:21.901Z,24.83
2023-02-22T14:35:27.515Z,24.84
2023-02-22T14:36:21.905Z,24.83
2023-02-22T14:37:21.895Z,24.84
2023-02-22T14:38:21.870Z,24.84
2023-02-22T14:39:21.853Z,24.87
2023-02-22T14:40:21.859Z,24.87
2023-02-22T14:41:22.178Z,24.86
2023-02-22T14:45:21.829Z,24.91
2023-02-22T14:46:21.851Z,24.93
2023-02-22T14:47:21.817Z,24.94
2023-02-22T14:48:21.814Z,24.95
2023-02-22T14:49:21.803Z,24.93
2023-02-22T14:52:21.784Z,24.98
2023-02-22T14:53:21.811Z,24.99
2023-02-22T14:54:21.769Z,25.01
2023-02-22T14:56:21.742Z,25.04
2023-02-22T14:57:21.748Z,25.04
2023-02-22T14:59:21.757Z,25.05
2023-02-22T15:00:21.733Z,25.07
2023-02-22T15:07:21.949Z,25.10
2023-02-22T15:10:22.020Z,25.12
2023-02-22T15:14:26.238Z,24.99
2023-02-22T15:16:22.326Z,25.04
2023-02-22T15:17:22.315Z,25.05
2023-02-22T15:18:22.325Z,25.04
2023-02-22T15:19:22.356Z,25.04
2023-02-22T15:20:22.401Z,25.04
2023-02-22T15:21:22.446Z,25.01
2023-02-22T15:22:22.498Z,25.03
2023-02-22T15:23:22.539Z,25.04
2023-02-22T15:25:22.615Z,24.98
2023-02-22T15:26:22.655Z,24.99
2023-02-22T15:27:22.704Z,25.03
2023-02-22T15:28:22.764Z,25.05
2023-02-22T15:29:22.790Z,25.07
2023-02-22T15:30:22.858Z,25.04
2023-02-22T15:31:21.938Z,24.90
2023-02-22T15:32:22.169Z,25.01
2023-02-22T15:33:23.083Z,25.10
2023-02-22T15:34:22.068Z,25.08
2023-02-22T15:35:22.086Z,25.08
2023-02-22T15:36:23.115Z,25.04
2023-02-22T15:37:23.193Z,25.03
2023-02-22T15:38:23.211Z,24.94
2023-02-22T15:39:23.429Z,24.71
2023-02-22T15:40:23.364Z,24.70
2023-02-22T15:41:22.347Z,24.53
2023-02-22T15:42:23.394Z,24.46
2023-02-22T15:43:22.372Z,24.46
2023-02-22T15:44:24.230Z,24.48
2023-02-22T15:45:23.489Z,24.42
2023-02-22T15:46:23.496Z,24.26
2023-02-22T15:47:22.549Z,24.39
2023-02-22T15:48:22.673Z,24.32
2023-02-22T15:49:23.620Z,24.16
2023-02-22T15:50:23.768Z,24.29
2023-02-22T15:51:23.727Z,24.33
2023-02-22T15:52:23.785Z,24.33
2023-02-22T15:53:23.850Z,24.39
2023-02-22T15:54:27.531Z,24.19
2023-02-22T15:55:25.678Z,24.07
2023-02-22T15:56:22.848Z,23.97
2023-02-22T15:57:23.863Z,24.12
2023-02-22T15:58:23.835Z,23.91
2023-02-22T15:59:23.825Z,23.91
2023-02-22T16:00:23.812Z,23.91
2023-02-22T16:01:23.890Z,23.93
2023-02-22T16:02:23.894Z,23.88
2023-02-22T16:03:22.797Z,23.78
2023-02-22T16:04:22.803Z,23.63
2023-02-22T16:05:22.778Z,23.61
2023-02-22T16:06:22.773Z,23.69
2023-02-22T16:07:23.762Z,23.46
2023-02-22T16:08:22.753Z,23.42
2023-02-22T16:09:23.746Z,23.30
2023-02-22T16:10:22.750Z,23.32
2023-02-22T16:11:22.748Z,23.38
2023-02-22T16:12:22.730Z,23.39
2023-02-22T16:13:31.397Z,23.42
2023-02-22T16:14:23.705Z,23.38
2023-02-22T16:15:22.689Z,23.45
2023-02-22T16:16:23.887Z,23.39
2023-02-22T16:17:23.684Z,23.38
2023-02-22T16:18:23.684Z,23.27
2023-02-22T16:19:23.663Z,23.53
2023-02-22T16:20:23.669Z,23.61
2023-02-22T16:21:23.656Z,23.73
2023-02-22T16:22:22.640Z,23.76
2023-02-22T16:23:22.644Z,23.83
2023-02-22T16:26:23.621Z,23.95
